sensor_id;sensor_type;location;lat;lon;timestamp;temperature;humidity
26336;DHT22;14047;50.936;4.654;2023-05-10T00:00:36;13.70;99.90
26336;DHT22;14047;50.936;4.654;2023-05-10T00:03:02;13.80;99.90
26336;DHT22;14047;50.936;4.654;2023-05-10T00:05:31;13.70;99.90
26336;DHT22;14047;50.936;4.654;2023-05-10T00:07:57;13.80;99.90
26336;DHT22;14047;50.936;4.654;2023-05-10T00:10:23;13.80;99.90
26336;DHT22;14047;50.936;4.654;2023-05-10T00:12:49;13.80;99.90
26336;DHT22;14047;50.936;4.654;2023-05-10T00:15:15;13.80;99.90
26336;DHT22;14047;50.936;4.654;2023-05-10T00:17:40;13.90;99.90
26336;DHT22;14047;50.936;4.654;2023-05-10T00:20:07;13.80;99.90
26336;DHT22;14047;50.936;4.654;2023-05-10T00:22:33;13.90;99.90
26336;DHT22;14047;50.936;4.654;2023-05-10T00:24:59;13.90;99.90
26336;DHT22;14047;50.936;4.654;2023-05-10T00:27:25;13.90;99.90
26336;DHT22;14047;50.936;4.654;2023-05-10T00:29:53;13.80;99.90
26336;DHT22;14047;50.936;4.654;2023-05-10T00:32:20;13.80;99.90
26336;DHT22;14047;50.936;4.654;2023-05-10T00:34:46;13.80;99.90
26336;DHT22;14047;50.936;4.654;2023-05-10T00:37:12;13.80;99.90
26336;DHT22;14047;50.936;4.654;2023-05-10T00:39:38;13.90;99.90
26336;DHT22;14047;50.936;4.654;2023-05-10T00:42:04;13.80;99.90
26336;DHT22;14047;50.936;4.654;2023-05-10T00:44:30;13.80;99.90
26336;DHT22;14047;50.936;4.654;2023-05-10T00:46:57;13.70;99.90
26336;DHT22;14047;50.936;4.654;2023-05-10T00:49:25;13.70;99.90
26336;DHT22;14047;50.936;4.654;2023-05-10T00:51:52;13.70;99.90
26336;DHT22;14047;50.936;4.654;2023-05-10T00:54:20;13.80;99.90
26336;DHT22;14047;50.936;4.654;2023-05-10T00:56:46;13.80;99.90
26336;DHT22;14047;50.936;4.654;2023-05-10T00:59:18;13.60;99.90
26336;DHT22;14047;50.936;4.654;2023-05-10T01:01:45;13.50;99.90
26336;DHT22;14047;50.936;4.654;2023-05-10T01:04:12;13.60;99.90
26336;DHT22;14047;50.936;4.654;2023-05-10T01:06:42;13.70;99.90
26336;DHT22;14047;50.936;4.654;2023-05-10T01:09:08;13.70;99.90
26336;DHT22;14047;50.936;4.654;2023-05-10T01:11:38;13.70;99.90
26336;DHT22;14047;50.936;4.654;2023-05-10T01:14:05;13.70;99.90
26336;DHT22;14047;50.936;4.654;2023-05-10T01:16:36;13.70;99.90
26336;DHT22;14047;50.936;4.654;2023-05-10T01:19:08;13.50;99.90
26336;DHT22;14047;50.936;4.654;2023-05-10T01:21:53;13.50;99.90
26336;DHT22;14047;50.936;4.654;2023-05-10T01:33:15;13.70;99.90
26336;DHT22;14047;50.936;4.654;2023-05-10T01:35:54;13.80;99.90
26336;DHT22;14047;50.936;4.654;2023-05-10T01:43:26;13.80;99.90
26336;DHT22;14047;50.936;4.654;2023-05-10T01:46:07;13.70;99.90
26336;DHT22;14047;50.936;4.654;2023-05-10T01:48:47;13.60;99.90
26336;DHT22;14047;50.936;4.654;2023-05-10T01:51:21;13.60;99.90
26336;DHT22;14047;50.936;4.654;2023-05-10T01:53:49;13.50;99.90
26336;DHT22;14047;50.936;4.654;2023-05-10T01:56:19;13.40;99.90
26336;DHT22;14047;50.936;4.654;2023-05-10T01:58:49;13.60;99.90
26336;DHT22;14047;50.936;4.654;2023-05-10T02:01:19;13.70;99.90
26336;DHT22;14047;50.936;4.654;2023-05-10T02:03:49;13.70;99.90
26336;DHT22;14047;50.936;4.654;2023-05-10T02:06:16;13.70;99.90
26336;DHT22;14047;50.936;4.654;2023-05-10T02:08:45;13.70;99.90
26336;DHT22;14047;50.936;4.654;2023-05-10T02:11:14;13.80;99.90
26336;DHT22;14047;50.936;4.654;2023-05-10T02:13:41;13.80;99.90
26336;DHT22;14047;50.936;4.654;2023-05-10T02:16:09;13.70;99.90
26336;DHT22;14047;50.936;4.654;2023-05-10T02:18:36;13.60;99.90
26336;DHT22;14047;50.936;4.654;2023-05-10T02:21:03;13.60;99.90
26336;DHT22;14047;50.936;4.654;2023-05-10T02:23:30;13.50;99.90
26336;DHT22;14047;50.936;4.654;2023-05-10T02:25:57;13.60;99.90
26336;DHT22;14047;50.936;4.654;2023-05-10T02:28:24;13.60;99.90
26336;DHT22;14047;50.936;4.654;2023-05-10T02:30:51;13.60;99.90
26336;DHT22;14047;50.936;4.654;2023-05-10T02:33:20;13.60;99.90
26336;DHT22;14047;50.936;4.654;2023-05-10T02:35:47;13.60;99.90
26336;DHT22;14047;50.936;4.654;2023-05-10T02:38:15;13.60;99.90
26336;DHT22;14047;50.936;4.654;2023-05-10T02:40:42;13.70;99.90
26336;DHT22;14047;50.936;4.654;2023-05-10T02:43:12;13.80;99.90
26336;DHT22;14047;50.936;4.654;2023-05-10T02:45:40;13.70;99.90
26336;DHT22;14047;50.936;4.654;2023-05-10T02:48:08;13.60;99.90
26336;DHT22;14047;50.936;4.654;2023-05-10T02:50:35;13.70;99.90
26336;DHT22;14047;50.936;4.654;2023-05-10T02:53:09;13.70;99.90
26336;DHT22;14047;50.936;4.654;2023-05-10T02:55:39;13.80;99.90
26336;DHT22;14047;50.936;4.654;2023-05-10T02:58:06;13.80;99.90
26336;DHT22;14047;50.936;4.654;2023-05-10T03:00:32;13.80;99.90
26336;DHT22;14047;50.936;4.654;2023-05-10T03:02:58;13.80;99.90
26336;DHT22;14047;50.936;4.654;2023-05-10T03:05:25;13.70;99.90
26336;DHT22;14047;50.936;4.654;2023-05-10T03:07:52;13.60;99.90
26336;DHT22;14047;50.936;4.654;2023-05-10T03:10:19;13.60;99.90
26336;DHT22;14047;50.936;4.654;2023-05-10T03:13:07;13.60;99.90
26336;DHT22;14047;50.936;4.654;2023-05-10T03:16:08;13.60;99.90
26336;DHT22;14047;50.936;4.654;2023-05-10T03:18:54;13.70;99.90
26336;DHT22;14047;50.936;4.654;2023-05-10T03:21:24;13.60;99.90
26336;DHT22;14047;50.936;4.654;2023-05-10T03:24:02;13.70;99.90
26336;DHT22;14047;50.936;4.654;2023-05-10T03:26:32;13.70;99.90
26336;DHT22;14047;50.936;4.654;2023-05-10T03:29:10;13.70;99.90
26336;DHT22;14047;50.936;4.654;2023-05-10T03:31:38;13.70;99.90
26336;DHT22;14047;50.936;4.654;2023-05-10T03:34:04;13.60;99.90
26336;DHT22;14047;50.936;4.654;2023-05-10T03:36:31;13.50;99.90
26336;DHT22;14047;50.936;4.654;2023-05-10T03:38:58;13.60;99.90
26336;DHT22;14047;50.936;4.654;2023-05-10T03:41:24;13.60;99.90
26336;DHT22;14047;50.936;4.654;2023-05-10T03:43:51;13.60;99.90
26336;DHT22;14047;50.936;4.654;2023-05-10T03:46:17;13.60;99.90
26336;DHT22;14047;50.936;4.654;2023-05-10T03:48:44;13.60;99.90
26336;DHT22;14047;50.936;4.654;2023-05-10T03:51:10;13.60;99.90
26336;DHT22;14047;50.936;4.654;2023-05-10T03:53:37;13.50;99.90
26336;DHT22;14047;50.936;4.654;2023-05-10T03:56:03;13.40;99.90
26336;DHT22;14047;50.936;4.654;2023-05-10T03:58:31;13.50;99.90
26336;DHT22;14047;50.936;4.654;2023-05-10T04:00:57;13.50;99.90
26336;DHT22;14047;50.936;4.654;2023-05-10T04:03:24;13.50;99.90
26336;DHT22;14047;50.936;4.654;2023-05-10T04:06:01;13.40;99.90
26336;DHT22;14047;50.936;4.654;2023-05-10T04:08:29;13.30;99.90
26336;DHT22;14047;50.936;4.654;2023-05-10T04:11:09;13.30;99.90
26336;DHT22;14047;50.936;4.654;2023-05-10T04:13:36;13.20;99.90
26336;DHT22;14047;50.936;4.654;2023-05-10T04:16:02;13.20;99.90
26336;DHT22;14047;50.936;4.654;2023-05-10T04:18:28;13.00;99.90
26336;DHT22;14047;50.936;4.654;2023-05-10T04:20:54;12.90;99.90
26336;DHT22;14047;50.936;4.654;2023-05-10T04:23:20;12.90;99.90
26336;DHT22;14047;50.936;4.654;2023-05-10T04:25:46;12.90;99.90
26336;DHT22;14047;50.936;4.654;2023-05-10T04:28:12;12.90;99.90
26336;DHT22;14047;50.936;4.654;2023-05-10T04:30:39;13.00;99.90
26336;DHT22;14047;50.936;4.654;2023-05-10T04:33:06;13.00;99.90
26336;DHT22;14047;50.936;4.654;2023-05-10T04:35:32;13.10;99.90
26336;DHT22;14047;50.936;4.654;2023-05-10T04:37:58;13.00;99.90
26336;DHT22;14047;50.936;4.654;2023-05-10T04:40:24;13.10;99.90
26336;DHT22;14047;50.936;4.654;2023-05-10T04:42:50;13.20;99.90
26336;DHT22;14047;50.936;4.654;2023-05-10T04:45:15;13.30;99.90
26336;DHT22;14047;50.936;4.654;2023-05-10T04:47:42;13.30;99.90
26336;DHT22;14047;50.936;4.654;2023-05-10T04:50:08;13.40;99.90
26336;DHT22;14047;50.936;4.654;2023-05-10T04:52:34;13.40;99.90
26336;DHT22;14047;50.936;4.654;2023-05-10T04:55:00;13.40;99.90
26336;DHT22;14047;50.936;4.654;2023-05-10T04:57:26;13.30;99.90
26336;DHT22;14047;50.936;4.654;2023-05-10T04:59:52;13.20;99.90
26336;DHT22;14047;50.936;4.654;2023-05-10T05:02:18;13.20;99.90
26336;DHT22;14047;50.936;4.654;2023-05-10T05:04:44;13.20;99.90
26336;DHT22;14047;50.936;4.654;2023-05-10T05:07:10;13.20;99.90
26336;DHT22;14047;50.936;4.654;2023-05-10T05:09:36;13.20;99.90
26336;DHT22;14047;50.936;4.654;2023-05-10T05:12:02;13.30;99.90
26336;DHT22;14047;50.936;4.654;2023-05-10T05:14:28;13.30;99.90
26336;DHT22;14047;50.936;4.654;2023-05-10T05:16:54;13.40;99.90
26336;DHT22;14047;50.936;4.654;2023-05-10T05:19:20;13.40;99.90
26336;DHT22;14047;50.936;4.654;2023-05-10T05:21:45;13.50;99.90
26336;DHT22;14047;50.936;4.654;2023-05-10T05:24:11;13.60;99.90
26336;DHT22;14047;50.936;4.654;2023-05-10T05:26:38;13.60;99.90
26336;DHT22;14047;50.936;4.654;2023-05-10T05:29:04;13.60;99.90
26336;DHT22;14047;50.936;4.654;2023-05-10T05:31:30;13.60;99.90
26336;DHT22;14047;50.936;4.654;2023-05-10T05:33:56;13.70;99.90
26336;DHT22;14047;50.936;4.654;2023-05-10T05:36:22;13.80;99.90
26336;DHT22;14047;50.936;4.654;2023-05-10T05:38:48;13.80;99.90
26336;DHT22;14047;50.936;4.654;2023-05-10T05:41:14;13.80;99.90
26336;DHT22;14047;50.936;4.654;2023-05-10T05:43:39;13.80;99.90
26336;DHT22;14047;50.936;4.654;2023-05-10T05:46:05;13.80;99.90
26336;DHT22;14047;50.936;4.654;2023-05-10T05:48:31;14.00;99.90
26336;DHT22;14047;50.936;4.654;2023-05-10T05:50:57;13.80;99.90
26336;DHT22;14047;50.936;4.654;2023-05-10T05:53:24;13.90;99.90
26336;DHT22;14047;50.936;4.654;2023-05-10T05:55:57;14.00;99.90
26336;DHT22;14047;50.936;4.654;2023-05-10T05:58:24;13.90;99.90
26336;DHT22;14047;50.936;4.654;2023-05-10T06:00:51;13.90;99.90
26336;DHT22;14047;50.936;4.654;2023-05-10T06:03:20;13.90;99.90
26336;DHT22;14047;50.936;4.654;2023-05-10T06:05:46;13.90;99.90
26336;DHT22;14047;50.936;4.654;2023-05-10T06:08:12;13.90;99.90
26336;DHT22;14047;50.936;4.654;2023-05-10T06:10:38;13.90;99.90
26336;DHT22;14047;50.936;4.654;2023-05-10T06:13:04;13.90;99.90
26336;DHT22;14047;50.936;4.654;2023-05-10T06:15:30;14.00;99.90
26336;DHT22;14047;50.936;4.654;2023-05-10T06:17:56;13.90;99.90
26336;DHT22;14047;50.936;4.654;2023-05-10T06:20:22;13.90;99.90
26336;DHT22;14047;50.936;4.654;2023-05-10T06:22:48;14.00;99.90
26336;DHT22;14047;50.936;4.654;2023-05-10T06:25:13;13.90;99.90
26336;DHT22;14047;50.936;4.654;2023-05-10T06:27:40;14.00;99.90
26336;DHT22;14047;50.936;4.654;2023-05-10T06:30:06;14.00;99.90
26336;DHT22;14047;50.936;4.654;2023-05-10T06:32:34;13.90;99.90
26336;DHT22;14047;50.936;4.654;2023-05-10T06:34:59;13.90;99.90
26336;DHT22;14047;50.936;4.654;2023-05-10T06:37:26;13.90;99.90
26336;DHT22;14047;50.936;4.654;2023-05-10T06:39:52;14.00;99.90
26336;DHT22;14047;50.936;4.654;2023-05-10T06:42:17;14.00;99.90
26336;DHT22;14047;50.936;4.654;2023-05-10T06:44:45;14.10;99.90
26336;DHT22;14047;50.936;4.654;2023-05-10T06:47:11;14.10;99.90
26336;DHT22;14047;50.936;4.654;2023-05-10T06:49:37;14.10;99.90
26336;DHT22;14047;50.936;4.654;2023-05-10T06:52:03;14.20;99.90
26336;DHT22;14047;50.936;4.654;2023-05-10T06:54:29;14.20;99.90
26336;DHT22;14047;50.936;4.654;2023-05-10T06:56:55;14.20;99.90
26336;DHT22;14047;50.936;4.654;2023-05-10T06:59:21;14.30;99.90
26336;DHT22;14047;50.936;4.654;2023-05-10T07:01:47;14.30;99.90
26336;DHT22;14047;50.936;4.654;2023-05-10T07:04:13;14.30;99.90
26336;DHT22;14047;50.936;4.654;2023-05-10T07:06:39;14.40;99.90
26336;DHT22;14047;50.936;4.654;2023-05-10T07:09:05;14.40;99.90
26336;DHT22;14047;50.936;4.654;2023-05-10T07:11:31;14.40;99.90
26336;DHT22;14047;50.936;4.654;2023-05-10T07:13:57;14.60;99.90
26336;DHT22;14047;50.936;4.654;2023-05-10T07:16:23;14.70;99.90
26336;DHT22;14047;50.936;4.654;2023-05-10T07:18:51;14.90;99.90
26336;DHT22;14047;50.936;4.654;2023-05-10T07:21:18;15.20;99.90
26336;DHT22;14047;50.936;4.654;2023-05-10T07:23:44;15.10;99.90
26336;DHT22;14047;50.936;4.654;2023-05-10T07:26:10;14.50;99.90
26336;DHT22;14047;50.936;4.654;2023-05-10T07:28:37;14.50;99.90
26336;DHT22;14047;50.936;4.654;2023-05-10T07:31:04;14.50;99.90
26336;DHT22;14047;50.936;4.654;2023-05-10T07:33:30;14.50;99.90
26336;DHT22;14047;50.936;4.654;2023-05-10T07:35:56;14.60;99.90
26336;DHT22;14047;50.936;4.654;2023-05-10T07:38:23;14.60;99.90
26336;DHT22;14047;50.936;4.654;2023-05-10T07:40:49;14.60;99.90
26336;DHT22;14047;50.936;4.654;2023-05-10T07:43:14;14.30;99.90
26336;DHT22;14047;50.936;4.654;2023-05-10T07:45:40;14.40;99.90
26336;DHT22;14047;50.936;4.654;2023-05-10T07:48:06;14.20;99.90
26336;DHT22;14047;50.936;4.654;2023-05-10T07:50:32;14.20;99.90
26336;DHT22;14047;50.936;4.654;2023-05-10T07:52:58;14.20;99.90
26336;DHT22;14047;50.936;4.654;2023-05-10T07:55:24;14.00;99.90
26336;DHT22;14047;50.936;4.654;2023-05-10T07:57:50;13.90;99.90
26336;DHT22;14047;50.936;4.654;2023-05-10T08:00:18;13.80;99.90
26336;DHT22;14047;50.936;4.654;2023-05-10T08:02:44;13.80;99.90
26336;DHT22;14047;50.936;4.654;2023-05-10T08:05:10;13.80;99.90
26336;DHT22;14047;50.936;4.654;2023-05-10T08:07:36;13.70;99.90
26336;DHT22;14047;50.936;4.654;2023-05-10T08:10:03;13.60;99.90
26336;DHT22;14047;50.936;4.654;2023-05-10T08:12:30;13.70;99.90
26336;DHT22;14047;50.936;4.654;2023-05-10T08:14:56;13.70;99.90
26336;DHT22;14047;50.936;4.654;2023-05-10T08:17:22;13.80;99.90
26336;DHT22;14047;50.936;4.654;2023-05-10T08:19:48;13.80;99.90
26336;DHT22;14047;50.936;4.654;2023-05-10T08:22:14;13.70;99.90
26336;DHT22;14047;50.936;4.654;2023-05-10T08:24:39;13.60;99.90
26336;DHT22;14047;50.936;4.654;2023-05-10T08:27:08;13.60;99.90
26336;DHT22;14047;50.936;4.654;2023-05-10T08:29:34;13.60;99.90
26336;DHT22;14047;50.936;4.654;2023-05-10T08:32:00;13.80;99.90
26336;DHT22;14047;50.936;4.654;2023-05-10T08:34:27;13.70;99.90
26336;DHT22;14047;50.936;4.654;2023-05-10T08:36:52;13.80;99.90
26336;DHT22;14047;50.936;4.654;2023-05-10T08:39:18;13.80;99.90
26336;DHT22;14047;50.936;4.654;2023-05-10T08:41:45;14.00;99.90
26336;DHT22;14047;50.936;4.654;2023-05-10T08:44:12;14.10;99.90
26336;DHT22;14047;50.936;4.654;2023-05-10T08:46:41;14.20;99.90
26336;DHT22;14047;50.936;4.654;2023-05-10T08:49:13;14.10;99.90
26336;DHT22;14047;50.936;4.654;2023-05-10T08:51:42;14.10;99.90
26336;DHT22;14047;50.936;4.654;2023-05-10T08:54:09;14.00;99.90
26336;DHT22;14047;50.936;4.654;2023-05-10T08:56:36;14.10;99.90
26336;DHT22;14047;50.936;4.654;2023-05-10T08:59:02;14.20;99.90
26336;DHT22;14047;50.936;4.654;2023-05-10T09:01:28;14.40;99.90
26336;DHT22;14047;50.936;4.654;2023-05-10T09:03:58;14.50;99.90
26336;DHT22;14047;50.936;4.654;2023-05-10T09:06:24;14.80;99.90
26336;DHT22;14047;50.936;4.654;2023-05-10T09:08:50;14.70;99.90
26336;DHT22;14047;50.936;4.654;2023-05-10T09:11:21;14.60;99.90
26336;DHT22;14047;50.936;4.654;2023-05-10T09:13:50;14.80;99.90
26336;DHT22;14047;50.936;4.654;2023-05-10T09:16:18;15.10;99.90
26336;DHT22;14047;50.936;4.654;2023-05-10T09:18:44;15.10;99.90
26336;DHT22;14047;50.936;4.654;2023-05-10T09:21:10;15.30;99.90
26336;DHT22;14047;50.936;4.654;2023-05-10T09:23:36;15.50;99.90
26336;DHT22;14047;50.936;4.654;2023-05-10T09:26:03;15.70;99.90
26336;DHT22;14047;50.936;4.654;2023-05-10T09:28:34;15.60;99.90
26336;DHT22;14047;50.936;4.654;2023-05-10T09:31:15;15.50;99.90
26336;DHT22;14047;50.936;4.654;2023-05-10T09:33:45;15.20;99.90
26336;DHT22;14047;50.936;4.654;2023-05-10T09:36:14;15.10;99.90
26336;DHT22;14047;50.936;4.654;2023-05-10T09:38:48;15.00;99.90
26336;DHT22;14047;50.936;4.654;2023-05-10T09:41:19;15.00;99.90
26336;DHT22;14047;50.936;4.654;2023-05-10T09:43:45;14.80;99.90
26336;DHT22;14047;50.936;4.654;2023-05-10T09:46:11;14.80;99.90
26336;DHT22;14047;50.936;4.654;2023-05-10T09:48:43;14.80;99.90
26336;DHT22;14047;50.936;4.654;2023-05-10T09:51:09;14.80;99.90
26336;DHT22;14047;50.936;4.654;2023-05-10T09:53:36;14.70;99.90
26336;DHT22;14047;50.936;4.654;2023-05-10T09:56:02;14.80;99.90
26336;DHT22;14047;50.936;4.654;2023-05-10T09:58:28;15.00;99.90
26336;DHT22;14047;50.936;4.654;2023-05-10T10:00:53;15.00;99.90
26336;DHT22;14047;50.936;4.654;2023-05-10T10:03:21;14.80;99.90
26336;DHT22;14047;50.936;4.654;2023-05-10T10:05:48;14.80;99.90
26336;DHT22;14047;50.936;4.654;2023-05-10T10:08:14;14.90;99.90
26336;DHT22;14047;50.936;4.654;2023-05-10T10:10:41;14.90;99.90
26336;DHT22;14047;50.936;4.654;2023-05-10T10:13:08;14.70;99.90
26336;DHT22;14047;50.936;4.654;2023-05-10T10:15:34;14.80;99.90
26336;DHT22;14047;50.936;4.654;2023-05-10T10:18:00;15.00;99.90
26336;DHT22;14047;50.936;4.654;2023-05-10T10:20:27;15.20;99.90
26336;DHT22;14047;50.936;4.654;2023-05-10T10:22:53;15.40;99.90
26336;DHT22;14047;50.936;4.654;2023-05-10T10:25:20;15.40;99.90
26336;DHT22;14047;50.936;4.654;2023-05-10T10:30:31;15.50;99.90
26336;DHT22;14047;50.936;4.654;2023-05-10T10:36:04;15.80;99.90
26336;DHT22;14047;50.936;4.654;2023-05-10T10:38:57;15.80;99.90
26336;DHT22;14047;50.936;4.654;2023-05-10T10:41:35;15.50;99.90
26336;DHT22;14047;50.936;4.654;2023-05-10T10:49:30;15.30;99.90
26336;DHT22;14047;50.936;4.654;2023-05-10T10:52:14;15.20;99.90
26336;DHT22;14047;50.936;4.654;2023-05-10T10:54:51;15.20;99.90
26336;DHT22;14047;50.936;4.654;2023-05-10T10:57:18;15.20;99.90
26336;DHT22;14047;50.936;4.654;2023-05-10T10:59:45;15.30;99.90
26336;DHT22;14047;50.936;4.654;2023-05-10T11:02:50;15.40;99.90
26336;DHT22;14047;50.936;4.654;2023-05-10T11:08:17;15.60;99.90
26336;DHT22;14047;50.936;4.654;2023-05-10T11:13:38;15.60;99.90
26336;DHT22;14047;50.936;4.654;2023-05-10T11:18:40;16.00;99.90
26336;DHT22;14047;50.936;4.654;2023-05-10T11:21:08;15.60;99.90
26336;DHT22;14047;50.936;4.654;2023-05-10T11:23:56;15.40;99.90
26336;DHT22;14047;50.936;4.654;2023-05-10T11:26:31;15.50;99.90
26336;DHT22;14047;50.936;4.654;2023-05-10T11:28:57;15.60;99.90
26336;DHT22;14047;50.936;4.654;2023-05-10T11:31:25;15.70;99.90
26336;DHT22;14047;50.936;4.654;2023-05-10T11:33:54;15.80;99.90
26336;DHT22;14047;50.936;4.654;2023-05-10T11:36:23;15.80;99.90
26336;DHT22;14047;50.936;4.654;2023-05-10T11:38:49;15.70;99.90
26336;DHT22;14047;50.936;4.654;2023-05-10T11:41:17;15.80;99.90
26336;DHT22;14047;50.936;4.654;2023-05-10T11:43:46;15.90;99.90
26336;DHT22;14047;50.936;4.654;2023-05-10T11:46:13;16.10;99.90
26336;DHT22;14047;50.936;4.654;2023-05-10T11:48:39;16.50;99.90
26336;DHT22;14047;50.936;4.654;2023-05-10T11:51:10;16.40;99.90
26336;DHT22;14047;50.936;4.654;2023-05-10T11:53:36;16.50;99.90
26336;DHT22;14047;50.936;4.654;2023-05-10T11:56:08;16.70;99.90
26336;DHT22;14047;50.936;4.654;2023-05-10T11:58:35;16.70;99.90
26336;DHT22;14047;50.936;4.654;2023-05-10T12:01:02;16.60;99.90
26336;DHT22;14047;50.936;4.654;2023-05-10T12:03:29;16.70;99.90
26336;DHT22;14047;50.936;4.654;2023-05-10T12:05:56;16.60;99.90
26336;DHT22;14047;50.936;4.654;2023-05-10T12:08:24;16.60;99.90
26336;DHT22;14047;50.936;4.654;2023-05-10T12:10:51;16.70;99.90
26336;DHT22;14047;50.936;4.654;2023-05-10T12:13:19;16.80;99.90
26336;DHT22;14047;50.936;4.654;2023-05-10T12:15:46;17.00;99.90
26336;DHT22;14047;50.936;4.654;2023-05-10T12:18:13;17.20;99.90
26336;DHT22;14047;50.936;4.654;2023-05-10T12:20:40;17.20;99.90
26336;DHT22;14047;50.936;4.654;2023-05-10T12:23:09;17.50;99.90
26336;DHT22;14047;50.936;4.654;2023-05-10T12:25:36;17.80;99.90
26336;DHT22;14047;50.936;4.654;2023-05-10T12:28:04;17.90;99.90
26336;DHT22;14047;50.936;4.654;2023-05-10T12:30:32;18.10;99.90
26336;DHT22;14047;50.936;4.654;2023-05-10T12:33:17;18.30;99.90
26336;DHT22;14047;50.936;4.654;2023-05-10T12:35:48;18.90;99.90
26336;DHT22;14047;50.936;4.654;2023-05-10T12:38:27;19.60;99.90
26336;DHT22;14047;50.936;4.654;2023-05-10T12:41:00;19.90;99.90
26336;DHT22;14047;50.936;4.654;2023-05-10T12:43:26;19.80;99.90
26336;DHT22;14047;50.936;4.654;2023-05-10T12:45:52;19.70;99.90
26336;DHT22;14047;50.936;4.654;2023-05-10T12:48:18;19.10;99.90
26336;DHT22;14047;50.936;4.654;2023-05-10T12:50:45;19.10;99.90
26336;DHT22;14047;50.936;4.654;2023-05-10T12:53:11;18.90;99.90
26336;DHT22;14047;50.936;4.654;2023-05-10T12:55:37;18.70;99.90
26336;DHT22;14047;50.936;4.654;2023-05-10T12:58:03;18.70;99.90
26336;DHT22;14047;50.936;4.654;2023-05-10T13:00:28;19.20;99.90
26336;DHT22;14047;50.936;4.654;2023-05-10T13:02:54;19.50;99.90
26336;DHT22;14047;50.936;4.654;2023-05-10T13:05:20;19.70;99.90
26336;DHT22;14047;50.936;4.654;2023-05-10T13:07:46;19.70;99.90
26336;DHT22;14047;50.936;4.654;2023-05-10T13:10:12;19.90;99.90
26336;DHT22;14047;50.936;4.654;2023-05-10T13:12:38;20.20;99.90
26336;DHT22;14047;50.936;4.654;2023-05-10T13:15:04;20.50;99.90
26336;DHT22;14047;50.936;4.654;2023-05-10T13:17:30;20.30;99.90
26336;DHT22;14047;50.936;4.654;2023-05-10T13:19:56;20.50;99.90
26336;DHT22;14047;50.936;4.654;2023-05-10T13:22:22;20.50;99.90
26336;DHT22;14047;50.936;4.654;2023-05-10T13:24:48;20.30;99.90
26336;DHT22;14047;50.936;4.654;2023-05-10T13:27:13;20.10;99.90
26336;DHT22;14047;50.936;4.654;2023-05-10T13:29:39;19.50;99.90
26336;DHT22;14047;50.936;4.654;2023-05-10T13:32:05;19.50;99.90
26336;DHT22;14047;50.936;4.654;2023-05-10T13:34:31;19.90;99.90
26336;DHT22;14047;50.936;4.654;2023-05-10T13:36:57;19.60;99.90
26336;DHT22;14047;50.936;4.654;2023-05-10T13:39:23;19.70;99.90
26336;DHT22;14047;50.936;4.654;2023-05-10T13:41:49;19.50;99.90
26336;DHT22;14047;50.936;4.654;2023-05-10T13:44:16;19.80;99.90
26336;DHT22;14047;50.936;4.654;2023-05-10T13:46:42;19.80;99.90
26336;DHT22;14047;50.936;4.654;2023-05-10T13:49:11;20.30;99.90
26336;DHT22;14047;50.936;4.654;2023-05-10T13:51:37;20.50;99.90
26336;DHT22;14047;50.936;4.654;2023-05-10T13:54:03;20.70;99.90
26336;DHT22;14047;50.936;4.654;2023-05-10T13:56:29;20.60;99.90
26336;DHT22;14047;50.936;4.654;2023-05-10T13:58:56;20.60;99.90
26336;DHT22;14047;50.936;4.654;2023-05-10T14:01:25;20.30;99.90
26336;DHT22;14047;50.936;4.654;2023-05-10T14:03:50;20.60;99.90
26336;DHT22;14047;50.936;4.654;2023-05-10T14:06:17;20.40;99.90
26336;DHT22;14047;50.936;4.654;2023-05-10T14:08:43;20.20;99.90
26336;DHT22;14047;50.936;4.654;2023-05-10T14:11:09;20.20;99.90
26336;DHT22;14047;50.936;4.654;2023-05-10T14:13:35;20.30;99.90
26336;DHT22;14047;50.936;4.654;2023-05-10T14:16:01;20.30;99.90
26336;DHT22;14047;50.936;4.654;2023-05-10T14:18:27;19.90;99.90
26336;DHT22;14047;50.936;4.654;2023-05-10T14:20:54;20.20;99.90
26336;DHT22;14047;50.936;4.654;2023-05-10T14:23:22;20.20;99.90
26336;DHT22;14047;50.936;4.654;2023-05-10T14:25:52;20.10;99.90
26336;DHT22;14047;50.936;4.654;2023-05-10T14:28:18;19.90;99.90
26336;DHT22;14047;50.936;4.654;2023-05-10T14:30:44;19.80;99.90
26336;DHT22;14047;50.936;4.654;2023-05-10T14:33:10;19.80;99.90
26336;DHT22;14047;50.936;4.654;2023-05-10T14:35:36;20.20;99.90
26336;DHT22;14047;50.936;4.654;2023-05-10T14:38:03;20.40;99.90
26336;DHT22;14047;50.936;4.654;2023-05-10T14:40:29;20.50;99.90
26336;DHT22;14047;50.936;4.654;2023-05-10T14:42:55;20.00;99.90
26336;DHT22;14047;50.936;4.654;2023-05-10T14:45:22;19.40;99.90
26336;DHT22;14047;50.936;4.654;2023-05-10T14:47:49;19.30;99.90
26336;DHT22;14047;50.936;4.654;2023-05-10T14:50:15;19.50;99.90
26336;DHT22;14047;50.936;4.654;2023-05-10T14:52:42;19.60;99.90
26336;DHT22;14047;50.936;4.654;2023-05-10T14:55:09;19.50;99.90
26336;DHT22;14047;50.936;4.654;2023-05-10T14:57:35;19.50;99.90
26336;DHT22;14047;50.936;4.654;2023-05-10T15:00:01;19.40;99.90
26336;DHT22;14047;50.936;4.654;2023-05-10T15:02:27;19.30;99.90
26336;DHT22;14047;50.936;4.654;2023-05-10T15:04:53;19.30;99.90
26336;DHT22;14047;50.936;4.654;2023-05-10T15:07:18;19.30;99.90
26336;DHT22;14047;50.936;4.654;2023-05-10T15:09:45;19.10;99.90
26336;DHT22;14047;50.936;4.654;2023-05-10T15:12:11;19.00;99.90
26336;DHT22;14047;50.936;4.654;2023-05-10T15:14:37;18.90;99.90
26336;DHT22;14047;50.936;4.654;2023-05-10T15:17:05;18.70;99.90
26336;DHT22;14047;50.936;4.654;2023-05-10T15:19:31;18.60;99.90
26336;DHT22;14047;50.936;4.654;2023-05-10T15:21:59;18.30;99.90
26336;DHT22;14047;50.936;4.654;2023-05-10T15:24:25;18.10;99.90
26336;DHT22;14047;50.936;4.654;2023-05-10T15:26:51;18.10;99.90
26336;DHT22;14047;50.936;4.654;2023-05-10T15:29:17;18.10;99.90
26336;DHT22;14047;50.936;4.654;2023-05-10T15:31:48;18.10;99.90
26336;DHT22;14047;50.936;4.654;2023-05-10T15:34:15;18.10;99.90
26336;DHT22;14047;50.936;4.654;2023-05-10T15:36:41;18.20;99.90
26336;DHT22;14047;50.936;4.654;2023-05-10T15:39:07;18.30;99.90
26336;DHT22;14047;50.936;4.654;2023-05-10T15:41:35;18.40;99.90
26336;DHT22;14047;50.936;4.654;2023-05-10T15:44:01;18.20;99.90
26336;DHT22;14047;50.936;4.654;2023-05-10T15:46:28;17.90;99.90
26336;DHT22;14047;50.936;4.654;2023-05-10T15:48:54;17.60;99.90
26336;DHT22;14047;50.936;4.654;2023-05-10T15:51:20;17.10;99.90
26336;DHT22;14047;50.936;4.654;2023-05-10T15:53:46;16.40;99.90
26336;DHT22;14047;50.936;4.654;2023-05-10T15:56:12;16.20;99.90
26336;DHT22;14047;50.936;4.654;2023-05-10T15:58:40;15.90;99.90
26336;DHT22;14047;50.936;4.654;2023-05-10T16:01:06;15.40;99.90
26336;DHT22;14047;50.936;4.654;2023-05-10T16:03:33;14.90;99.90
26336;DHT22;14047;50.936;4.654;2023-05-10T16:05:59;14.70;99.90